Time;durP1;ratioP1;P1;durP2;ratioP2;P2;SDS_P1;SDS_P2;PMS_P1;PMS_P2;Temp;Humidity;BMP_temperature;BMP_pressure;BME280_temperature;BME280_humidity;BME280_pressure;Samples;Min_cycle;Max_cycle;Signal;HPM_P1;HPM_P2
2023/01/16 00:00:22;;;;;;;1.75;1.25;;;;;;;;;;5042866;28;20035;-76
2023/01/16 00:03:07;;;;;;;2.00;1.10;;;;;;;;;;5028407;28;20115;-74
2023/01/16 00:05:52;;;;;;;4.43;1.33;;;;;;;;;;5033174;28;20025;-74
2023/01/16 00:08:37;;;;;;;2.55;1.15;;;;;;;;;;5046652;28;20124;-76
2023/01/16 00:11:23;;;;;;;4.57;1.15;;;;;;;;;;5040772;28;20028;-69
2023/01/16 00:14:08;;;;;;;3.17;1.42;;;;;;;;;;5046150;28;20094;-70
2023/01/16 00:16:53;;;;;;;2.72;1.20;;;;;;;;;;5034432;28;20500;-69
2023/01/16 00:19:38;;;;;;;6.70;1.50;;;;;;;;;;5032324;28;20100;-69
2023/01/16 00:22:23;;;;;;;2.70;1.33;;;;;;;;;;5033447;28;20108;-70
2023/01/16 00:25:09;;;;;;;3.70;1.27;;;;;;;;;;5046110;28;20086;-70
2023/01/16 00:27:54;;;;;;;2.42;1.25;;;;;;;;;;5049273;28;20036;-76
2023/01/16 00:30:40;;;;;;;5.47;1.27;;;;;;;;;;5030800;28;20025;-73
2023/01/16 00:33:25;;;;;;;6.43;1.33;;;;;;;;;;5055770;28;20039;-72
2023/01/16 00:36:10;;;;;;;3.78;1.50;;;;;;;;;;5046755;28;20669;-72
2023/01/16 00:38:56;;;;;;;3.05;1.45;;;;;;;;;;5057399;28;20143;-74
2023/01/16 00:41:41;;;;;;;4.28;1.40;;;;;;;;;;5044901;28;20435;-74
2023/01/16 00:44:26;;;;;;;3.35;1.63;;;;;;;;;;5034059;28;20036;-79
2023/01/16 00:47:11;;;;;;;1.88;0.80;;;;;;;;;;5046381;28;20476;-78
2023/01/16 00:49:57;;;;;;;6.15;1.08;;;;;;;;;;5022422;28;20027;-79
2023/01/16 00:52:42;;;;;;;3.53;1.20;;;;;;;;;;5045552;28;20029;-80
2023/01/16 00:55:27;;;;;;;5.25;1.08;;;;;;;;;;5041927;28;20124;-77
2023/01/16 00:58:12;;;;;;;3.13;0.98;;;;;;;;;;5039741;28;20088;-76
2023/01/16 01:00:58;;;;;;;3.35;1.10;;;;;;;;;;5045425;28;20167;-76
2023/01/16 01:03:43;;;;;;;2.78;1.55;;;;;;;;;;5046946;28;20033;-69
2023/01/16 01:06:28;;;;;;;1.52;1.08;;;;;;;;;;5036337;28;20484;-75
2023/01/16 01:09:13;;;;;;;3.28;1.00;;;;;;;;;;5043335;28;20373;-76
2023/01/16 01:11:58;;;;;;;3.45;1.40;;;;;;;;;;5031746;28;20024;-75
2023/01/16 01:14:44;;;;;;;3.85;0.82;;;;;;;;;;5032479;28;20043;-75
2023/01/16 01:17:29;;;;;;;1.65;0.95;;;;;;;;;;5032342;28;20032;-78
2023/01/16 01:20:14;;;;;;;2.40;1.23;;;;;;;;;;5031572;28;20222;-75
2023/01/16 01:23:00;;;;;;;6.60;1.40;;;;;;;;;;5042020;28;20035;-75
2023/01/16 01:25:45;;;;;;;1.98;0.95;;;;;;;;;;5023126;28;20094;-72
2023/01/16 01:28:30;;;;;;;2.25;1.63;;;;;;;;;;5032366;28;20037;-70
2023/01/16 01:31:15;;;;;;;3.80;0.93;;;;;;;;;;5050473;28;20476;-69
2023/01/16 01:34:00;;;;;;;1.40;0.77;;;;;;;;;;5031716;28;20032;-70
2023/01/16 01:36:46;;;;;;;3.03;1.05;;;;;;;;;;5046383;28;20031;-70
2023/01/16 01:39:31;;;;;;;2.15;0.85;;;;;;;;;;5033161;28;20515;-72
2023/01/16 01:45:25;;;;;;;2.22;0.82;;;;;;;;;;5046409;28;20052;-82
2023/01/16 01:48:13;;;;;;;0.85;0.65;;;;;;;;;;5047010;28;20052;-81
2023/01/16 01:51:01;;;;;;;1.30;0.75;;;;;;;;;;5030369;28;20037;-81
2023/01/16 01:53:54;;;;;;;3.92;0.93;;;;;;;;;;5033321;28;20075;-82
2023/01/16 01:56:43;;;;;;;3.20;1.40;;;;;;;;;;5056203;28;20025;-83
2023/01/16 01:59:32;;;;;;;4.78;1.27;;;;;;;;;;5046696;28;20079;-73
2023/01/16 02:02:20;;;;;;;2.90;2.25;;;;;;;;;;5052105;28;20393;-79
2023/01/16 02:05:07;;;;;;;3.30;0.90;;;;;;;;;;5029958;28;20121;-79
2023/01/16 02:07:53;;;;;;;2.88;1.00;;;;;;;;;;5021524;28;20041;-79
2023/01/16 02:10:43;;;;;;;1.20;1.05;;;;;;;;;;5024896;28;20029;-79
2023/01/16 02:13:29;;;;;;;5.97;1.67;;;;;;;;;;5043422;28;20079;-79
2023/01/16 02:19:24;;;;;;;4.07;1.77;;;;;;;;;;5041139;28;20480;-75
2023/01/16 02:22:09;;;;;;;3.15;1.30;;;;;;;;;;5030500;28;20056;-75
2023/01/16 02:25:02;;;;;;;4.32;1.45;;;;;;;;;;5046182;28;20032;-75
2023/01/16 02:27:50;;;;;;;3.05;1.00;;;;;;;;;;5027876;28;20471;-75
2023/01/16 02:30:54;;;;;;;3.97;1.13;;;;;;;;;;5044752;28;20025;-75
2023/01/16 02:33:39;;;;;;;1.73;0.80;;;;;;;;;;5058224;28;20017;-74
2023/01/16 02:36:43;;;;;;;1.85;0.85;;;;;;;;;;5030683;28;20027;-73
2023/01/16 02:39:37;;;;;;;2.55;0.93;;;;;;;;;;5039857;28;20063;-78
2023/01/16 02:42:34;;;;;;;2.75;2.05;;;;;;;;;;5044591;28;20031;-76
2023/01/16 02:45:33;;;;;;;2.88;1.30;;;;;;;;;;5031247;28;20356;-75
2023/01/16 02:48:23;;;;;;;1.95;1.10;;;;;;;;;;5023700;28;20519;-75
2023/01/16 02:51:14;;;;;;;1.65;0.77;;;;;;;;;;5042322;28;20036;-76
2023/01/16 02:54:03;;;;;;;1.63;0.88;;;;;;;;;;5046133;28;20021;-80
2023/01/16 02:56:53;;;;;;;3.63;1.00;;;;;;;;;;5044355;28;20029;-75
2023/01/16 02:59:40;;;;;;;2.00;0.75;;;;;;;;;;5026594;28;20271;-75
2023/01/16 03:02:25;;;;;;;4.07;0.85;;;;;;;;;;5023530;28;20566;-73
2023/01/16 03:05:10;;;;;;;4.47;1.40;;;;;;;;;;5052561;28;20028;-75
2023/01/16 03:07:58;;;;;;;2.53;0.90;;;;;;;;;;5035891;28;20044;-75
2023/01/16 03:10:47;;;;;;;4.22;1.02;;;;;;;;;;5045295;28;20464;-74
2023/01/16 03:13:32;;;;;;;0.93;0.63;;;;;;;;;;5047824;28;20420;-73
2023/01/16 03:16:56;;;;;;;5.15;0.90;;;;;;;;;;5027308;28;20055;-74
2023/01/16 03:19:44;;;;;;;1.73;0.77;;;;;;;;;;4979901;28;20030;-73
2023/01/16 03:22:35;;;;;;;3.42;1.02;;;;;;;;;;4958672;28;20034;-76
2023/01/16 03:25:20;;;;;;;1.30;0.90;;;;;;;;;;4969115;28;20406;-75
2023/01/16 03:28:08;;;;;;;5.40;3.00;;;;;;;;;;4988509;28;20035;-75
2023/01/16 03:30:59;;;;;;;6.38;1.00;;;;;;;;;;4987791;28;20448;-76
2023/01/16 03:33:58;;;;;;;4.25;2.55;;;;;;;;;;4973017;28;20068;-77
2023/01/16 03:36:55;;;;;;;3.00;0.80;;;;;;;;;;4976190;28;20046;-74
2023/01/16 03:39:43;;;;;;;1.45;0.77;;;;;;;;;;4975831;28;20510;-74
2023/01/16 03:42:31;;;;;;;1.90;1.02;;;;;;;;;;4973486;28;20510;-74
2023/01/16 03:45:20;;;;;;;4.47;0.80;;;;;;;;;;4986788;28;20026;-74
2023/01/16 03:48:07;;;;;;;8.02;1.85;;;;;;;;;;4985606;28;20034;-73
2023/01/16 03:50:56;;;;;;;2.28;0.88;;;;;;;;;;5030457;28;20543;-71
2023/01/16 03:53:45;;;;;;;4.55;1.00;;;;;;;;;;5045391;28;20024;-73
2023/01/16 03:56:33;;;;;;;4.10;1.02;;;;;;;;;;5031650;28;20032;-75
2023/01/16 03:59:18;;;;;;;1.95;0.90;;;;;;;;;;5046051;28;20692;-74
2023/01/16 04:02:12;;;;;;;2.45;1.48;;;;;;;;;;5055336;28;20402;-76
2023/01/16 04:05:00;;;;;;;3.80;0.95;;;;;;;;;;5044173;28;20029;-73
2023/01/16 04:07:47;;;;;;;1.20;0.85;;;;;;;;;;5046817;28;20116;-77
2023/01/16 04:10:36;;;;;;;1.92;0.90;;;;;;;;;;5051480;28;20423;-70
2023/01/16 04:13:25;;;;;;;3.80;1.38;;;;;;;;;;5026331;28;20512;-68
2023/01/16 04:16:14;;;;;;;1.98;0.95;;;;;;;;;;5029604;28;20091;-69
2023/01/16 04:18:59;;;;;;;3.10;0.77;;;;;;;;;;5044055;28;20404;-69
2023/01/16 04:21:45;;;;;;;3.60;1.00;;;;;;;;;;5024267;28;20020;-70
2023/01/16 04:24:30;;;;;;;2.13;0.80;;;;;;;;;;5032201;28;20025;-68
2023/01/16 04:27:19;;;;;;;1.33;0.70;;;;;;;;;;5045125;28;20083;-70
2023/01/16 04:30:04;;;;;;;3.35;1.45;;;;;;;;;;5030249;28;20479;-74
2023/01/16 04:32:50;;;;;;;3.47;1.45;;;;;;;;;;5028535;28;20391;-72
2023/01/16 04:35:35;;;;;;;2.17;0.65;;;;;;;;;;5035117;28;20025;-72
2023/01/16 04:38:20;;;;;;;3.15;1.10;;;;;;;;;;5047797;28;20658;-72
2023/01/16 04:41:05;;;;;;;2.55;1.02;;;;;;;;;;5054075;28;20029;-73
2023/01/16 04:43:51;;;;;;;1.88;0.95;;;;;;;;;;5047068;28;20399;-74
2023/01/16 04:46:38;;;;;;;1.95;0.80;;;;;;;;;;5026442;28;20086;-72
2023/01/16 04:49:23;;;;;;;2.60;1.20;;;;;;;;;;5020794;28;20032;-74
2023/01/16 04:52:08;;;;;;;4.07;1.25;;;;;;;;;;5042175;28;20072;-75
2023/01/16 04:54:54;;;;;;;2.40;0.88;;;;;;;;;;5057729;28;20029;-73
2023/01/16 04:57:39;;;;;;;2.90;1.10;;;;;;;;;;5031151;28;20022;-73
2023/01/16 05:00:24;;;;;;;2.58;1.27;;;;;;;;;;5023040;28;20025;-71
2023/01/16 05:03:10;;;;;;;4.30;0.90;;;;;;;;;;5043190;28;20028;-72
2023/01/16 05:05:55;;;;;;;2.90;0.93;;;;;;;;;;5045700;28;20028;-73
2023/01/16 05:08:40;;;;;;;1.42;0.80;;;;;;;;;;5025278;28;20062;-76
2023/01/16 05:11:25;;;;;;;5.43;1.95;;;;;;;;;;5024706;28;20028;-77
2023/01/16 05:14:11;;;;;;;2.50;1.15;;;;;;;;;;5049200;28;20025;-73
2023/01/16 05:16:56;;;;;;;1.25;0.80;;;;;;;;;;5043984;28;20472;-77
2023/01/16 05:19:41;;;;;;;3.92;1.60;;;;;;;;;;5025695;28;20119;-77
2023/01/16 05:22:27;;;;;;;4.32;0.88;;;;;;;;;;5042993;28;20487;-73
2023/01/16 05:25:12;;;;;;;1.30;0.80;;;;;;;;;;5022570;28;20059;-75
2023/01/16 05:27:57;;;;;;;2.55;0.73;;;;;;;;;;5027515;28;20032;-77
2023/01/16 05:30:43;;;;;;;3.83;0.90;;;;;;;;;;5041777;28;20020;-77
2023/01/16 05:33:28;;;;;;;2.40;0.77;;;;;;;;;;5045611;28;20494;-76
2023/01/16 05:36:14;;;;;;;2.33;1.02;;;;;;;;;;5046973;28;20025;-76
2023/01/16 05:38:59;;;;;;;3.22;1.10;;;;;;;;;;5029017;28;20651;-73
2023/01/16 05:41:44;;;;;;;5.25;1.30;;;;;;;;;;5029390;28;20036;-77
2023/01/16 05:44:29;;;;;;;5.07;1.45;;;;;;;;;;5032139;28;20203;-77
2023/01/16 05:47:15;;;;;;;5.93;1.27;;;;;;;;;;5050119;28;20028;-74
2023/01/16 05:50:00;;;;;;;4.47;1.23;;;;;;;;;;5043156;28;20068;-75
2023/01/16 05:52:45;;;;;;;2.13;1.27;;;;;;;;;;5027419;28;20083;-77
2023/01/16 05:55:30;;;;;;;4.72;1.20;;;;;;;;;;5027823;28;20064;-76
2023/01/16 05:58:16;;;;;;;1.08;0.70;;;;;;;;;;5030604;28;20024;-74
2023/01/16 06:01:01;;;;;;;1.63;0.90;;;;;;;;;;5028219;28;20484;-82
2023/01/16 06:03:46;;;;;;;2.20;0.95;;;;;;;;;;5043769;28;20537;-81
2023/01/16 06:06:32;;;;;;;4.95;1.58;;;;;;;;;;5027668;28;20420;-81
2023/01/16 06:09:17;;;;;;;1.92;0.88;;;;;;;;;;5026269;28;20032;-82
2023/01/16 06:12:02;;;;;;;4.45;1.08;;;;;;;;;;5041604;28;20476;-81
2023/01/16 06:14:48;;;;;;;3.50;0.90;;;;;;;;;;5030305;28;20036;-87
2023/01/16 06:17:33;;;;;;;2.30;0.82;;;;;;;;;;5039857;28;20020;-75
2023/01/16 06:20:18;;;;;;;3.70;1.65;;;;;;;;;;5047983;28;20028;-72
2023/01/16 06:23:03;;;;;;;5.25;2.20;;;;;;;;;;5044387;28;20037;-73
2023/01/16 06:25:49;;;;;;;7.85;1.80;;;;;;;;;;5027009;28;20476;-72
2023/01/16 06:28:34;;;;;;;5.45;2.17;;;;;;;;;;5025746;28;20039;-73
2023/01/16 06:31:20;;;;;;;5.07;1.45;;;;;;;;;;5031492;28;20021;-74
2023/01/16 06:34:05;;;;;;;4.07;1.40;;;;;;;;;;5039523;28;20037;-72
2023/01/16 06:36:50;;;;;;;5.40;1.30;;;;;;;;;;5027662;28;20528;-72
2023/01/16 06:39:35;;;;;;;1.98;0.90;;;;;;;;;;5044850;28;20052;-73
2023/01/16 06:42:21;;;;;;;2.05;1.10;;;;;;;;;;5027308;28;20028;-72
2023/01/16 06:45:06;;;;;;;2.67;1.00;;;;;;;;;;5058818;28;20469;-72
2023/01/16 06:47:52;;;;;;;3.17;1.23;;;;;;;;;;5044180;28;20147;-70
2023/01/16 06:50:37;;;;;;;2.25;1.00;;;;;;;;;;5048977;28;20032;-74
2023/01/16 06:53:23;;;;;;;3.53;1.25;;;;;;;;;;5029431;28;20055;-74
2023/01/16 06:56:08;;;;;;;4.78;1.40;;;;;;;;;;5028125;28;20024;-74
2023/01/16 06:58:53;;;;;;;2.50;1.08;;;;;;;;;;5045968;28;20031;-75
2023/01/16 07:01:38;;;;;;;5.30;0.88;;;;;;;;;;5042011;28;21185;-77
2023/01/16 07:04:24;;;;;;;6.05;1.40;;;;;;;;;;5045316;28;20025;-77
2023/01/16 07:07:09;;;;;;;5.07;1.75;;;;;;;;;;5031570;28;20024;-76
2023/01/16 07:09:54;;;;;;;1.80;1.30;;;;;;;;;;5043342;28;20518;-75
2023/01/16 07:12:39;;;;;;;2.75;1.40;;;;;;;;;;5028420;28;20107;-74
2023/01/16 07:24:38;;;;;;;3.50;1.50;;;;;;;;;;5042957;28;20535;-71
2023/01/16 07:27:24;;;;;;;2.55;1.08;;;;;;;;;;5041778;28;20318;-70
2023/01/16 07:30:10;;;;;;;2.45;1.02;;;;;;;;;;5045408;28;20365;-72
2023/01/16 07:32:56;;;;;;;3.80;1.48;;;;;;;;;;5044871;28;20584;-82
2023/01/16 07:35:41;;;;;;;3.50;1.45;;;;;;;;;;5044482;28;20040;-79
2023/01/16 07:38:26;;;;;;;2.58;1.25;;;;;;;;;;5043320;28;20041;-82
2023/01/16 07:41:11;;;;;;;4.18;1.05;;;;;;;;;;5042466;28;20090;-79
2023/01/16 07:43:57;;;;;;;2.47;1.27;;;;;;;;;;5045016;28;20187;-80
2023/01/16 07:46:42;;;;;;;2.67;1.52;;;;;;;;;;5043076;28;20049;-77
2023/01/16 07:49:27;;;;;;;6.65;1.45;;;;;;;;;;5045965;28;20512;-72
2023/01/16 07:52:12;;;;;;;4.22;1.55;;;;;;;;;;5048624;28;20213;-76
2023/01/16 07:54:57;;;;;;;6.70;1.80;;;;;;;;;;5037443;28;20037;-81
2023/01/16 07:57:43;;;;;;;3.80;1.58;;;;;;;;;;5037088;28;20552;-83
2023/01/16 08:00:28;;;;;;;2.58;1.10;;;;;;;;;;5046547;28;20391;-80
2023/01/16 08:03:14;;;;;;;2.97;1.10;;;;;;;;;;5034432;28;20380;-80
2023/01/16 08:06:02;;;;;;;7.85;1.67;;;;;;;;;;5036138;28;20033;-82
2023/01/16 08:08:47;;;;;;;6.53;2.15;;;;;;;;;;5033674;28;20044;-80
2023/01/16 08:11:35;;;;;;;5.05;1.70;;;;;;;;;;5044192;28;20028;-82
2023/01/16 08:14:20;;;;;;;7.25;1.77;;;;;;;;;;5043407;28;20047;-79
2023/01/16 08:17:06;;;;;;;4.05;1.83;;;;;;;;;;5048110;28;20056;-77
2023/01/16 08:19:51;;;;;;;3.03;1.50;;;;;;;;;;5047928;28;20028;-83
2023/01/16 08:22:43;;;;;;;4.72;1.95;;;;;;;;;;5062069;28;20521;-77
2023/01/16 08:25:28;;;;;;;2.38;1.33;;;;;;;;;;5053927;28;20071;-85
2023/01/16 08:28:14;;;;;;;3.97;1.60;;;;;;;;;;5045653;28;20041;-70
2023/01/16 08:31:03;;;;;;;4.85;1.40;;;;;;;;;;5045550;28;20039;-70
2023/01/16 08:33:49;;;;;;;;;;;;;;;;;;5043459;28;20037;-72
2023/01/16 08:36:34;;;;;;;4.10;1.58;;;;;;;;;;5058787;28;19913;-69
2023/01/16 08:39:19;;;;;;;3.38;1.85;;;;;;;;;;5048150;28;20144;-69
2023/01/16 08:51:23;;;;;;;3.97;1.70;;;;;;;;;;5047322;28;20021;-74
2023/01/16 08:54:08;;;;;;;3.37;1.43;;;;;;;;;;5043144;28;20027;-77
2023/01/16 08:56:53;;;;;;;2.75;1.63;;;;;;;;;;5039374;28;20322;-75
2023/01/16 08:59:38;;;;;;;3.17;1.52;;;;;;;;;;5045302;28;20074;-73
2023/01/16 09:02:25;;;;;;;5.35;1.42;;;;;;;;;;5039100;28;20025;-74
2023/01/16 09:05:10;;;;;;;5.03;1.83;;;;;;;;;;5046711;28;20110;-74
2023/01/16 09:07:55;;;;;;;2.70;1.45;;;;;;;;;;5047639;28;20040;-75
2023/01/16 09:13:48;;;;;;;6.47;2.05;;;;;;;;;;5045893;28;20075;-74
2023/01/16 09:13:49;;;;;;;7.47;2.05;;;;;;;;;;5042353;28;20026;-74
2023/01/16 09:16:34;;;;;;;3.13;1.30;;;;;;;;;;5046236;28;20029;-74
2023/01/16 09:19:19;;;;;;;3.80;1.55;;;;;;;;;;5046245;28;20036;-72
2023/01/16 09:22:07;;;;;;;2.70;1.15;;;;;;;;;;5046032;28;20115;-71
2023/01/16 09:24:53;;;;;;;4.95;1.60;;;;;;;;;;5046287;28;20043;-70
2023/01/16 09:27:38;;;;;;;2.33;1.30;;;;;;;;;;5046264;28;20083;-72
2023/01/16 09:30:23;;;;;;;3.72;1.23;;;;;;;;;;5050045;28;20028;-71
2023/01/16 09:33:09;;;;;;;1.65;0.95;;;;;;;;;;5045530;28;20033;-74
2023/01/16 09:35:54;;;;;;;2.83;1.00;;;;;;;;;;5027312;28;20387;-75
2023/01/16 09:38:39;;;;;;;3.08;1.60;;;;;;;;;;5029413;28;20055;-79
2023/01/16 09:44:28;;;;;;;1.23;0.98;;;;;;;;;;5045745;28;20033;-79
2023/01/16 09:47:14;;;;;;;1.17;0.98;;;;;;;;;;5028414;28;20025;-81
2023/01/16 09:50:02;;;;;;;1.67;1.00;;;;;;;;;;5019302;28;20040;-84
2023/01/16 09:59:12;;;;;;;1.98;1.20;;;;;;;;;;5040713;28;20060;-72
2023/01/16 10:02:04;;;;;;;5.10;1.88;;;;;;;;;;5049259;28;20043;-71
2023/01/16 10:04:50;;;;;;;3.35;1.45;;;;;;;;;;5039921;28;20036;-73
2023/01/16 10:07:39;;;;;;;2.72;1.20;;;;;;;;;;5044114;28;20033;-71
2023/01/16 10:10:43;;;;;;;2.83;1.08;;;;;;;;;;5040048;28;20086;-72
2023/01/16 10:13:31;;;;;;;2.50;0.95;;;;;;;;;;5044841;28;20037;-72
2023/01/16 10:16:19;;;;;;;1.20;0.90;;;;;;;;;;5044934;28;20537;-74
2023/01/16 10:19:39;;;;;;;3.35;1.20;;;;;;;;;;5045248;28;20047;-72
2023/01/16 10:22:43;;;;;;;3.03;1.25;;;;;;;;;;4993460;28;20037;-73
2023/01/16 10:25:37;;;;;;;2.45;0.82;;;;;;;;;;5050616;28;20112;-72
2023/01/16 10:28:41;;;;;;;2.08;0.98;;;;;;;;;;5046786;28;20029;-70
2023/01/16 10:31:48;;;;;;;1.95;0.98;;;;;;;;;;5055199;28;20424;-74
2023/01/16 10:34:37;;;;;;;1.65;0.82;;;;;;;;;;5046516;28;20318;-70
2023/01/16 10:37:23;;;;;;;3.25;0.90;;;;;;;;;;5045053;28;20036;-72
2023/01/16 10:40:18;;;;;;;1.88;0.80;;;;;;;;;;5044480;28;20045;-73
2023/01/16 10:49:29;;;;;;;1.65;0.85;;;;;;;;;;5038991;28;20064;-72
2023/01/16 10:52:14;;;;;;;3.20;1.00;;;;;;;;;;5043865;28;20438;-79
2023/01/16 10:55:00;;;;;;;1.00;0.80;;;;;;;;;;5031515;28;20029;-81
2023/01/16 10:57:54;;;;;;;2.55;0.90;;;;;;;;;;5029044;28;20035;-77
2023/01/16 11:00:41;;;;;;;1.10;1.00;;;;;;;;;;5044633;28;20106;-74
2023/01/16 11:03:29;;;;;;;1.75;0.95;;;;;;;;;;5036776;28;20037;-77
2023/01/16 11:06:19;;;;;;;0.90;0.85;;;;;;;;;;5051526;28;20070;-80
2023/01/16 11:09:06;;;;;;;3.90;1.23;;;;;;;;;;5055805;28;20049;-81
2023/01/16 11:18:30;;;;;;;3.10;1.10;;;;;;;;;;5023461;28;20115;-71
2023/01/16 11:21:22;;;;;;;0.82;0.75;;;;;;;;;;5040497;28;20021;-70
2023/01/16 11:24:14;;;;;;;1.58;0.90;;;;;;;;;;5052710;28;20535;-69
2023/01/16 11:27:00;;;;;;;1.73;0.65;;;;;;;;;;5043157;28;20071;-70
2023/01/16 11:29:46;;;;;;;2.70;0.90;;;;;;;;;;5047369;28;20048;-76
2023/01/16 11:32:37;;;;;;;1.30;0.73;;;;;;;;;;5049025;28;20039;-70
2023/01/16 11:35:29;;;;;;;1.73;0.90;;;;;;;;;;5049785;28;20439;-71
2023/01/16 11:38:14;;;;;;;1.88;1.00;;;;;;;;;;5053245;28;20032;-74
2023/01/16 11:41:03;;;;;;;0.57;0.57;;;;;;;;;;5046425;28;20132;-75
2023/01/16 11:47:18;;;;;;;1.25;1.02;;;;;;;;;;5045352;28;20028;-72
2023/01/16 11:50:19;;;;;;;1.35;1.10;;;;;;;;;;5026208;28;20072;-74
2023/01/16 11:53:05;;;;;;;1.80;1.17;;;;;;;;;;5048300;28;20063;-74
2023/01/16 11:55:53;;;;;;;0.95;0.60;;;;;;;;;;5030105;28;20072;-74
2023/01/16 11:58:47;;;;;;;0.95;0.63;;;;;;;;;;5060562;28;20016;-72
2023/01/16 12:02:15;;;;;;;0.82;0.68;;;;;;;;;;5046146;28;20126;-70
2023/01/16 12:08:06;;;;;;;1.05;0.70;;;;;;;;;;5050436;28;20063;-75
2023/01/16 12:10:58;;;;;;;0.60;0.60;;;;;;;;;;5047853;28;20040;-75
2023/01/16 12:14:17;;;;;;;0.65;0.65;;;;;;;;;;5047497;28;20040;-76
2023/01/16 12:17:17;;;;;;;1.65;0.60;;;;;;;;;;5047971;28;20025;-74
2023/01/16 12:20:02;;;;;;;;;;;;;;;;;;5046068;28;20033;-75
2023/01/16 12:22:47;;;;;;;1.77;0.82;;;;;;;;;;5046287;28;20015;-76
2023/01/16 12:25:32;;;;;;;2.47;1.33;;;;;;;;;;5047266;28;20025;-76
2023/01/16 12:28:21;;;;;;;4.82;1.10;;;;;;;;;;5047765;28;20402;-72
2023/01/16 12:31:31;;;;;;;2.60;0.88;;;;;;;;;;5043125;28;20028;-72
2023/01/16 12:34:20;;;;;;;3.20;0.70;;;;;;;;;;5044140;28;20029;-72
2023/01/16 12:37:05;;;;;;;1.35;1.10;;;;;;;;;;5055960;28;20509;-70
2023/01/16 12:40:09;;;;;;;2.45;0.70;;;;;;;;;;5049794;28;20056;-70
2023/01/16 12:46:05;;;;;;;0.80;0.80;;;;;;;;;;5042363;28;20037;-75
2023/01/16 12:49:11;;;;;;;0.55;0.55;;;;;;;;;;5045547;28;20411;-77
2023/01/16 12:52:08;;;;;;;0.77;0.55;;;;;;;;;;5016842;28;20029;-78
2023/01/16 12:54:58;;;;;;;1.00;0.80;;;;;;;;;;5047103;28;20033;-75
2023/01/16 12:57:49;;;;;;;0.60;0.60;;;;;;;;;;5035455;28;20052;-76
2023/01/16 13:00:43;;;;;;;1.73;0.90;;;;;;;;;;5047609;28;20033;-72
2023/01/16 13:03:34;;;;;;;0.60;0.60;;;;;;;;;;5059832;28;20078;-70
2023/01/16 13:06:46;;;;;;;0.60;0.60;;;;;;;;;;5048104;28;20392;-71
2023/01/16 13:09:50;;;;;;;1.67;0.77;;;;;;;;;;5046542;28;20087;-70
2023/01/16 13:15:41;;;;;;;0.73;0.60;;;;;;;;;;5045823;28;20619;-69
2023/01/16 13:18:28;;;;;;;1.58;0.73;;;;;;;;;;5049325;28;20025;-75
2023/01/16 13:21:21;;;;;;;1.30;0.60;;;;;;;;;;5043493;28;20028;-78
2023/01/16 13:24:14;;;;;;;0.50;0.50;;;;;;;;;;5046671;28;20069;-79
2023/01/16 13:27:03;;;;;;;0.70;0.50;;;;;;;;;;5042589;28;20472;-79
2023/01/16 13:29:48;;;;;;;;;;;;;;;;;;5047317;28;20045;-80
2023/01/16 13:32:37;;;;;;;0.60;0.60;;;;;;;;;;5045219;28;19913;-76
2023/01/16 13:35:27;;;;;;;1.00;0.70;;;;;;;;;;5044068;28;20484;-76
2023/01/16 13:38:15;;;;;;;0.60;0.60;;;;;;;;;;5045399;28;20041;-74
2023/01/16 13:41:14;;;;;;;3.90;0.70;;;;;;;;;;5042985;28;20459;-79
2023/01/16 13:47:28;;;;;;;2.47;0.60;;;;;;;;;;5041243;28;20032;-83
2023/01/16 13:50:26;;;;;;;1.75;0.60;;;;;;;;;;5046435;28;20040;-80
2023/01/16 13:53:13;;;;;;;0.95;0.75;;;;;;;;;;5045727;28;20032;-76
2023/01/16 13:56:13;;;;;;;0.95;0.60;;;;;;;;;;5045621;28;20028;-67
2023/01/16 13:59:02;;;;;;;0.57;0.57;;;;;;;;;;5032965;28;20031;-71
2023/01/16 14:01:47;;;;;;;1.00;0.60;;;;;;;;;;5038595;28;20041;-71
2023/01/16 14:04:32;;;;;;;1.20;0.70;;;;;;;;;;5028057;28;20111;-73
2023/01/16 14:10:41;;;;;;;1.90;0.75;;;;;;;;;;5037311;28;20025;-73
2023/01/16 14:13:37;;;;;;;1.05;0.88;;;;;;;;;;5042370;28;20052;-67
2023/01/16 14:16:32;;;;;;;1.48;0.60;;;;;;;;;;5049845;28;20024;-69
2023/01/16 14:19:22;;;;;;;1.63;0.60;;;;;;;;;;5044076;28;20032;-69
2023/01/16 14:25:03;;;;;;;3.45;0.65;;;;;;;;;;5053655;28;20044;-71
2023/01/16 14:27:50;;;;;;;1.05;0.60;;;;;;;;;;5038983;28;20044;-70
2023/01/16 14:30:35;;;;;;;0.50;0.50;;;;;;;;;;5046964;28;20029;-70
2023/01/16 14:33:21;;;;;;;0.77;0.70;;;;;;;;;;5042400;28;20036;-78
2023/01/16 14:36:12;;;;;;;0.50;0.50;;;;;;;;;;5046294;28;20887;-74
2023/01/16 14:38:58;;;;;;;1.98;0.50;;;;;;;;;;5051363;28;20049;-74
2023/01/16 14:57:43;;;;;;;0.50;0.50;;;;;;;;;;5042247;28;20024;-75
2023/01/16 15:00:29;;;;;;;0.82;0.50;;;;;;;;;;5043106;28;20089;-80
2023/01/16 15:03:42;;;;;;;1.27;0.60;;;;;;;;;;5038327;28;20453;-80
2023/01/16 15:06:35;;;;;;;1.80;0.57;;;;;;;;;;5011715;28;20037;-86
2023/01/16 15:09:27;;;;;;;1.00;0.55;;;;;;;;;;5044650;28;20045;-68
2023/01/16 15:12:14;;;;;;;0.52;0.52;;;;;;;;;;5048215;28;20104;-74
2023/01/16 15:14:59;;;;;;;2.47;1.05;;;;;;;;;;5046289;28;20083;-78
2023/01/16 15:23:55;;;;;;;1.42;0.70;;;;;;;;;;5046912;28;20025;-78
2023/01/16 15:26:51;;;;;;;0.70;0.60;;;;;;;;;;5049760;28;20024;-77
2023/01/16 15:29:48;;;;;;;0.90;0.70;;;;;;;;;;5046707;28;20044;-71
2023/01/16 15:36:13;;;;;;;0.82;0.60;;;;;;;;;;5047017;28;20032;-78
2023/01/16 15:39:00;;;;;;;0.88;0.50;;;;;;;;;;5046225;28;20139;-79
2023/01/16 15:48:09;;;;;;;0.60;0.60;;;;;;;;;;5046709;28;20037;-74
2023/01/16 15:51:04;;;;;;;0.55;0.55;;;;;;;;;;5044273;28;20040;-78
2023/01/16 15:53:54;;;;;;;0.55;0.50;;;;;;;;;;5052958;28;20480;-79
2023/01/16 15:56:39;;;;;;;;;;;;;;;;;;5029795;28;20083;-79
2023/01/16 15:59:33;;;;;;;0.70;0.70;;;;;;;;;;5047743;28;19999;-79
2023/01/16 16:02:20;;;;;;;0.63;0.50;;;;;;;;;;5056526;28;20082;-78
2023/01/16 16:05:05;;;;;;;1.42;0.60;;;;;;;;;;5058288;28;20111;-74
2023/01/16 16:07:51;;;;;;;0.68;0.68;;;;;;;;;;5048427;28;20052;-74
2023/01/16 16:13:42;;;;;;;0.65;0.60;;;;;;;;;;5061209;28;20022;-73
2023/01/16 16:19:32;;;;;;;3.58;0.73;;;;;;;;;;5044203;28;20609;-75
2023/01/16 16:25:27;;;;;;;0.60;0.55;;;;;;;;;;5051765;28;20024;-76
2023/01/16 16:28:15;;;;;;;1.63;0.70;;;;;;;;;;5044965;28;20075;-74
2023/01/16 16:31:13;;;;;;;2.63;0.60;;;;;;;;;;5048703;28;20052;-73
2023/01/16 16:34:04;;;;;;;2.83;1.35;;;;;;;;;;5058943;28;20120;-76
2023/01/16 16:36:50;;;;;;;1.33;0.88;;;;;;;;;;5027028;28;20111;-75
2023/01/16 16:39:44;;;;;;;1.50;0.90;;;;;;;;;;5045865;28;20155;-74
2023/01/16 16:42:45;;;;;;;0.95;0.70;;;;;;;;;;5047239;28;20031;-75
2023/01/16 16:45:34;;;;;;;1.35;0.80;;;;;;;;;;5060583;28;20024;-72
2023/01/16 16:48:28;;;;;;;0.73;0.70;;;;;;;;;;5031226;28;20124;-74
2023/01/16 16:51:21;;;;;;;2.72;0.70;;;;;;;;;;5048239;28;20033;-73
2023/01/16 16:54:13;;;;;;;1.95;0.90;;;;;;;;;;5051558;28;20490;-74
2023/01/16 16:56:58;;;;;;;0.60;0.60;;;;;;;;;;5053271;28;20020;-74
2023/01/16 16:59:44;;;;;;;5.57;1.10;;;;;;;;;;5045145;28;20083;-70
2023/01/16 17:02:30;;;;;;;1.42;0.90;;;;;;;;;;5045609;28;20033;-73
2023/01/16 17:05:20;;;;;;;2.38;0.95;;;;;;;;;;5046193;28;20108;-73
2023/01/16 17:08:05;;;;;;;1.55;1.02;;;;;;;;;;5031096;28;20496;-71
2023/01/16 17:10:50;;;;;;;1.33;0.75;;;;;;;;;;5042539;28;20044;-72
2023/01/16 17:13:36;;;;;;;1.08;0.77;;;;;;;;;;5042559;28;20506;-74
2023/01/16 17:16:23;;;;;;;1.10;0.80;;;;;;;;;;5044404;28;20270;-75
2023/01/16 17:19:18;;;;;;;2.85;1.00;;;;;;;;;;5043616;28;20484;-77
2023/01/16 17:22:03;;;;;;;1.20;1.10;;;;;;;;;;5041930;28;20357;-75
2023/01/16 17:24:50;;;;;;;1.27;0.98;;;;;;;;;;5045109;28;20388;-74
2023/01/16 17:27:35;;;;;;;0.93;0.80;;;;;;;;;;5047866;28;20025;-74
2023/01/16 17:30:23;;;;;;;1.15;0.90;;;;;;;;;;5056632;28;20480;-76
2023/01/16 17:33:09;;;;;;;1.27;0.90;;;;;;;;;;5043964;28;20036;-75
2023/01/16 17:36:28;;;;;;;5.03;1.20;;;;;;;;;;5045165;28;20475;-75
2023/01/16 17:39:06;;;;;;;5.00;1.70;;;;;;;;;;5044022;28;20060;-79
2023/01/16 17:47:41;;;;;;;1.67;1.00;;;;;;;;;;5043276;28;20041;-80
2023/01/16 17:50:26;;;;;;;2.15;1.13;;;;;;;;;;5043703;28;20097;-78
2023/01/16 17:53:13;;;;;;;3.22;1.40;;;;;;;;;;5027864;28;20033;-77
2023/01/16 17:56:00;;;;;;;1.50;1.05;;;;;;;;;;5044947;28;20051;-79
2023/01/16 18:01:32;;;;;;;1.95;1.55;;;;;;;;;;5063911;28;20034;-74
2023/01/16 18:04:18;;;;;;;2.30;0.80;;;;;;;;;;5031444;28;20041;-74
2023/01/16 18:07:05;;;;;;;1.45;1.10;;;;;;;;;;5036773;28;20448;-75
2023/01/16 18:09:50;;;;;;;3.70;1.13;;;;;;;;;;5037334;28;20542;-74
2023/01/16 18:18:46;;;;;;;1.50;0.60;;;;;;;;;;5040314;28;20029;-73
2023/01/16 18:24:37;;;;;;;1.42;1.00;;;;;;;;;;5046426;28;20037;-74
2023/01/16 18:27:23;;;;;;;0.77;0.73;;;;;;;;;;5045507;28;20025;-74
2023/01/16 18:30:08;;;;;;;0.98;0.70;;;;;;;;;;5031139;28;20094;-74
2023/01/16 18:32:54;;;;;;;5.13;0.90;;;;;;;;;;5040507;28;20019;-75
2023/01/16 18:35:39;;;;;;;0.82;0.80;;;;;;;;;;5032966;28;20028;-76
2023/01/16 19:03:16;;;;;;;1.30;0.80;;;;;;;;;;5044582;28;20331;-79
2023/01/16 19:06:01;;;;;;;1.15;1.00;;;;;;;;;;5049880;28;20032;-80
2023/01/16 19:08:50;;;;;;;0.70;0.70;;;;;;;;;;5045695;28;20037;-81
2023/01/16 19:11:35;;;;;;;1.00;0.90;;;;;;;;;;5043709;28;20053;-70
2023/01/16 19:14:21;;;;;;;1.42;0.70;;;;;;;;;;5038547;28;20048;-70
2023/01/16 19:17:06;;;;;;;1.63;0.80;;;;;;;;;;5043812;28;20027;-70
2023/01/16 19:19:52;;;;;;;0.98;0.55;;;;;;;;;;5040778;28;20033;-70
2023/01/16 19:22:37;;;;;;;1.00;0.80;;;;;;;;;;5039104;28;20036;-71